Time;durP1;ratioP1;P1;durP2;ratioP2;P2;SDS_P1;SDS_P2;PMS_P1;PMS_P2;Temp;Humidity;BMP_temperature;BMP_pressure;BME280_temperature;BME280_humidity;BME280_pressure;Samples;Min_cycle;Max_cycle;Signal;HPM_P1;HPM_P2
2022/10/11 00:00:46;;;;;;;0.10;0.10;;;13.40;99.90;;;;;;5032911;28;20177;-81
2022/10/11 00:03:13;;;;;;;0.10;0.10;;;13.50;99.90;;;;;;5031409;28;20191;-81
2022/10/11 00:05:39;;;;;;;0.10;0.10;;;13.50;99.90;;;;;;5032622;28;20182;-81
2022/10/11 00:08:05;;;;;;;0.10;0.10;;;13.50;99.90;;;;;;5032892;28;20214;-81
2022/10/11 00:10:32;;;;;;;0.10;0.10;;;13.50;99.90;;;;;;5029162;28;20214;-81
2022/10/11 00:12:57;;;;;;;0.10;0.10;;;13.70;99.90;;;;;;5033436;28;20205;-81
2022/10/11 00:15:23;;;;;;;0.10;0.10;;;13.70;99.90;;;;;;5036059;28;20180;-81
2022/10/11 00:17:49;;;;;;;0.10;0.10;;;13.80;99.90;;;;;;5036453;28;20181;-81
2022/10/11 00:20:15;;;;;;;0.10;0.10;;;13.80;99.90;;;;;;5037734;28;20214;-81
2022/10/11 00:22:41;;;;;;;0.10;0.10;;;13.80;99.90;;;;;;5036083;28;20270;-81
2022/10/11 00:25:08;;;;;;;0.10;0.10;;;13.90;99.90;;;;;;5036287;28;20277;-81
2022/10/11 00:27:35;;;;;;;0.10;0.10;;;13.90;99.90;;;;;;5037129;28;20190;-80
2022/10/11 00:30:01;;;;;;;0.10;0.10;;;13.90;99.90;;;;;;5036888;28;20210;-81
2022/10/11 00:32:27;;;;;;;0.10;0.10;;;13.90;99.90;;;;;;5035725;28;20179;-81
2022/10/11 00:34:53;;;;;;;0.10;0.10;;;14.00;99.90;;;;;;5035296;28;20183;-81
2022/10/11 00:37:19;;;;;;;0.10;0.10;;;13.90;99.90;;;;;;5039067;28;20206;-81
2022/10/11 00:39:45;;;;;;;0.10;0.10;;;13.80;99.90;;;;;;5035156;28;20217;-81
2022/10/11 00:42:15;;;;;;;0.10;0.10;;;13.90;99.90;;;;;;5036714;28;20845;-80
2022/10/11 00:44:49;;;;;;;0.07;0.07;;;13.80;99.90;;;;;;5036042;28;20634;-81
2022/10/11 00:47:21;;;;;;;0.10;0.10;;;13.80;99.90;;;;;;5036291;28;20212;-80
2022/10/11 00:49:56;;;;;;;0.10;0.10;;;13.80;99.90;;;;;;5032546;28;20706;-81
2022/10/11 00:52:32;;;;;;;0.10;0.10;;;13.70;99.90;;;;;;5037884;28;20198;-81
2022/10/11 00:55:13;;;;;;;0.10;0.10;;;13.80;99.90;;;;;;5033287;28;20265;-81
2022/10/11 00:57:42;;;;;;;0.00;0.00;;;13.80;99.90;;;;;;5035901;28;20685;-81
2022/10/11 01:00:10;;;;;;;0.10;0.10;;;13.90;99.90;;;;;;5033790;28;20210;-81
2022/10/11 01:02:37;;;;;;;0.10;0.10;;;13.80;99.90;;;;;;5033569;28;20241;-81
2022/10/11 01:05:04;;;;;;;0.10;0.10;;;13.80;99.90;;;;;;5035732;28;20502;-81
2022/10/11 01:07:31;;;;;;;0.10;0.10;;;13.80;99.90;;;;;;5034680;28;20215;-81
2022/10/11 01:09:57;;;;;;;0.10;0.10;;;13.70;99.90;;;;;;5034649;28;20231;-81
2022/10/11 01:12:25;;;;;;;0.10;0.10;;;13.70;99.90;;;;;;5033128;28;20663;-81
2022/10/11 01:15:19;;;;;;;0.10;0.10;;;13.60;99.90;;;;;;5033143;28;20177;-80
2022/10/11 01:18:13;;;;;;;0.10;0.10;;;13.50;99.90;;;;;;5032905;28;20187;-80
2022/10/11 01:21:16;;;;;;;0.10;0.10;;;13.50;99.90;;;;;;5034321;28;20185;-80
2022/10/11 01:24:06;;;;;;;0.00;0.00;;;13.50;99.90;;;;;;5032855;28;20303;-81
2022/10/11 01:27:13;;;;;;;0.10;0.10;;;13.40;99.90;;;;;;5034837;28;20190;-81
2022/10/11 01:30:07;;;;;;;0.10;0.10;;;13.50;99.90;;;;;;5035120;28;20210;-80
2022/10/11 01:32:39;;;;;;;0.10;0.10;;;13.40;99.90;;;;;;5034682;28;20179;-81
2022/10/11 01:35:08;;;;;;;0.10;0.10;;;13.40;99.90;;;;;;5031943;28;20289;-80
2022/10/11 01:37:36;;;;;;;0.10;0.10;;;13.20;99.90;;;;;;5032752;28;20187;-81
2022/10/11 01:40:08;;;;;;;0.10;0.10;;;13.10;99.90;;;;;;5033615;28;20203;-81
2022/10/11 01:42:37;;;;;;;0.00;0.00;;;12.90;99.90;;;;;;5033507;28;20245;-80
2022/10/11 01:45:04;;;;;;;0.10;0.10;;;12.80;99.90;;;;;;5035831;28;20257;-80
2022/10/11 01:47:29;;;;;;;0.10;0.10;;;12.80;99.90;;;;;;5036028;28;20268;-80
2022/10/11 01:50:00;;;;;;;0.07;0.07;;;12.70;99.90;;;;;;5036166;28;20284;-80
2022/10/11 01:52:30;;;;;;;0.10;0.10;;;12.60;99.90;;;;;;5035344;28;20220;-81
2022/10/11 01:55:15;;;;;;;0.10;0.10;;;12.60;99.90;;;;;;5035555;28;20247;-81
2022/10/11 01:58:04;;;;;;;0.07;0.07;;;12.50;99.90;;;;;;5034627;28;20269;-79
2022/10/11 02:00:52;;;;;;;0.00;0.00;;;12.50;99.90;;;;;;5036071;28;20255;-79
2022/10/11 02:03:44;;;;;;;0.07;0.07;;;12.40;99.90;;;;;;5035337;28;20252;-79
2022/10/11 02:06:40;;;;;;;0.10;0.10;;;12.30;99.90;;;;;;5033577;28;20196;-79
2022/10/11 02:09:15;;;;;;;0.10;0.10;;;12.00;99.90;;;;;;5035061;28;20205;-79
2022/10/11 02:11:41;;;;;;;0.10;0.10;;;12.10;99.90;;;;;;5035702;28;20212;-79
2022/10/11 02:14:18;;;;;;;0.00;0.00;;;11.90;99.90;;;;;;5034245;28;20233;-79
2022/10/11 02:16:57;;;;;;;0.00;0.00;;;11.90;99.90;;;;;;5035029;28;20204;-79
2022/10/11 02:19:30;;;;;;;0.00;0.00;;;11.80;99.90;;;;;;5048863;28;20523;-79
2022/10/11 02:22:01;;;;;;;0.10;0.10;;;11.80;99.90;;;;;;5033525;28;20194;-79
2022/10/11 02:24:31;;;;;;;0.10;0.10;;;11.80;99.90;;;;;;5033793;28;20771;-79
2022/10/11 02:26:59;;;;;;;0.10;0.10;;;11.70;99.90;;;;;;5035189;28;20222;-79
2022/10/11 02:29:27;;;;;;;0.00;0.00;;;11.80;99.90;;;;;;5033072;28;20285;-79
2022/10/11 02:31:57;;;;;;;0.10;0.10;;;11.80;99.90;;;;;;5031900;28;20190;-79
2022/10/11 02:34:31;;;;;;;0.00;0.00;;;11.90;99.90;;;;;;5034507;28;20198;-79
2022/10/11 02:37:23;;;;;;;0.10;0.10;;;11.90;99.90;;;;;;5031936;28;20769;-78
2022/10/11 02:40:11;;;;;;;0.10;0.10;;;11.90;99.90;;;;;;5033000;28;20206;-79
2022/10/11 02:42:43;;;;;;;0.10;0.10;;;11.90;99.90;;;;;;5033081;28;20186;-79
2022/10/11 02:45:31;;;;;;;0.07;0.07;;;11.90;99.90;;;;;;5032753;28;20269;-79
2022/10/11 02:47:57;;;;;;;0.10;0.10;;;11.90;99.90;;;;;;5030711;28;20217;-79
2022/10/11 02:50:23;;;;;;;0.10;0.10;;;12.00;99.90;;;;;;5032569;28;20727;-79
2022/10/11 02:52:48;;;;;;;0.10;0.10;;;11.90;99.90;;;;;;5031870;28;20210;-79
2022/10/11 02:55:14;;;;;;;0.10;0.10;;;11.80;99.90;;;;;;5033785;28;20957;-80
2022/10/11 02:57:39;;;;;;;0.10;0.10;;;11.80;99.90;;;;;;5032865;28;20190;-79
2022/10/11 03:00:06;;;;;;;0.03;0.03;;;11.70;99.90;;;;;;5032384;28;20299;-79
2022/10/11 03:02:32;;;;;;;0.07;0.07;;;11.70;99.90;;;;;;5029898;28;20189;-79
2022/10/11 03:04:57;;;;;;;0.10;0.10;;;11.70;99.90;;;;;;5031712;28;20177;-79
2022/10/11 03:07:23;;;;;;;0.10;0.10;;;11.70;99.90;;;;;;5031988;28;20569;-79
2022/10/11 03:09:48;;;;;;;0.10;0.10;;;11.60;99.90;;;;;;5034604;28;20209;-78
2022/10/11 03:12:14;;;;;;;0.10;0.10;;;11.50;99.90;;;;;;5036576;28;20279;-79
2022/10/11 03:14:39;;;;;;;0.10;0.10;;;11.50;99.90;;;;;;5036405;28;20210;-79
2022/10/11 03:17:05;;;;;;;0.10;0.10;;;11.50;99.90;;;;;;5033915;28;20196;-79
2022/10/11 03:19:32;;;;;;;0.10;0.10;;;11.50;99.90;;;;;;5035421;28;20212;-79
2022/10/11 03:21:58;;;;;;;0.00;0.00;;;11.50;99.90;;;;;;5033142;28;20268;-78
2022/10/11 03:24:24;;;;;;;0.10;0.10;;;11.40;99.90;;;;;;5039624;28;20203;-79
2022/10/11 03:26:49;;;;;;;0.10;0.10;;;11.30;99.90;;;;;;5037942;28;20275;-79
2022/10/11 03:29:15;;;;;;;0.00;0.00;;;11.30;99.90;;;;;;5037926;28;20229;-79
2022/10/11 03:31:41;;;;;;;0.10;0.10;;;11.20;99.90;;;;;;5033317;28;20214;-79
2022/10/11 03:34:06;;;;;;;0.10;0.10;;;11.20;99.90;;;;;;5032481;28;20205;-79
2022/10/11 03:36:32;;;;;;;0.00;0.00;;;11.30;99.90;;;;;;5034330;28;20651;-79
2022/10/11 03:38:59;;;;;;;0.00;0.00;;;11.30;99.90;;;;;;5036327;28;20243;-78
2022/10/11 03:41:24;;;;;;;0.10;0.10;;;11.30;99.90;;;;;;5035697;28;20209;-78
2022/10/11 03:43:50;;;;;;;0.00;0.00;;;11.20;99.90;;;;;;5037492;28;20233;-79
2022/10/11 03:46:15;;;;;;;0.10;0.10;;;11.20;99.90;;;;;;5030079;28;20186;-79
2022/10/11 03:48:41;;;;;;;0.10;0.10;;;11.20;99.90;;;;;;5025955;28;20220;-79
2022/10/11 03:51:06;;;;;;;0.10;0.10;;;10.90;99.90;;;;;;5036010;28;20202;-79
2022/10/11 03:53:32;;;;;;;0.10;0.10;;;10.80;99.90;;;;;;5031712;28;20209;-79
2022/10/11 03:55:58;;;;;;;0.10;0.10;;;10.80;99.90;;;;;;5034367;28;20210;-79
2022/10/11 03:58:23;;;;;;;0.10;0.10;;;10.60;99.90;;;;;;5031323;28;20216;-79
2022/10/11 04:00:50;;;;;;;0.10;0.10;;;10.50;99.90;;;;;;5033573;28;20228;-78
2022/10/11 04:03:16;;;;;;;0.10;0.10;;;10.40;99.90;;;;;;5033529;28;20244;-79
2022/10/11 04:05:42;;;;;;;0.10;0.10;;;10.40;99.90;;;;;;5033253;28;20189;-78
2022/10/11 04:08:07;;;;;;;0.10;0.10;;;10.30;99.90;;;;;;5033976;28;20293;-78
2022/10/11 04:10:33;;;;;;;0.10;0.10;;;10.30;99.90;;;;;;5033404;28;20262;-78
2022/10/11 04:12:58;;;;;;;0.03;0.03;;;10.30;99.90;;;;;;5034123;28;20258;-78
2022/10/11 04:15:24;;;;;;;0.10;0.10;;;10.20;99.90;;;;;;5035382;28;20174;-78
2022/10/11 04:17:49;;;;;;;0.00;0.00;;;10.20;99.90;;;;;;5033372;28;20200;-78
2022/10/11 04:20:15;;;;;;;0.00;0.00;;;10.20;99.90;;;;;;5032626;28;20294;-78
2022/10/11 04:22:41;;;;;;;0.10;0.10;;;10.20;99.90;;;;;;5033989;28;20186;-79
2022/10/11 04:25:07;;;;;;;0.10;0.10;;;10.20;99.90;;;;;;5032050;28;20189;-78
2022/10/11 04:27:33;;;;;;;0.10;0.10;;;10.20;99.90;;;;;;5033762;28;20810;-78
2022/10/11 04:29:59;;;;;;;0.00;0.00;;;10.10;99.90;;;;;;5034632;28;20209;-79
2022/10/11 04:32:25;;;;;;;0.00;0.00;;;10.00;99.90;;;;;;5033358;28;20187;-78
2022/10/11 04:34:51;;;;;;;0.10;0.10;;;10.00;99.90;;;;;;5034582;28;20607;-78
2022/10/11 04:37:16;;;;;;;0.00;0.00;;;10.00;99.90;;;;;;5033199;28;20190;-78
2022/10/11 04:39:42;;;;;;;0.10;0.10;;;9.90;99.90;;;;;;5034775;28;20257;-79
2022/10/11 04:42:07;;;;;;;0.00;0.00;;;9.80;99.90;;;;;;5033217;28;20198;-79
2022/10/11 04:44:33;;;;;;;0.10;0.10;;;9.70;99.90;;;;;;5033284;28;20197;-79
2022/10/11 04:46:59;;;;;;;0.00;0.00;;;9.70;99.90;;;;;;5033881;28;20248;-80
2022/10/11 04:49:24;;;;;;;0.07;0.07;;;9.60;99.90;;;;;;5034110;28;20216;-78
2022/10/11 04:51:50;;;;;;;0.10;0.10;;;9.60;99.90;;;;;;5036818;28;20215;-79
2022/10/11 04:54:15;;;;;;;0.10;0.10;;;9.60;99.90;;;;;;5036345;28;20852;-79
2022/10/11 04:56:41;;;;;;;0.10;0.10;;;9.60;99.90;;;;;;5033127;28;20197;-79
2022/10/11 04:59:06;;;;;;;0.00;0.00;;;9.60;99.90;;;;;;5032451;28;20213;-79
2022/10/11 05:01:32;;;;;;;0.10;0.10;;;9.50;99.90;;;;;;5035781;28;20187;-78
2022/10/11 05:03:58;;;;;;;0.03;0.03;;;9.50;99.90;;;;;;5034804;28;20270;-79
2022/10/11 05:06:23;;;;;;;0.10;0.10;;;9.40;99.90;;;;;;5036580;28;20193;-78
2022/10/11 05:08:49;;;;;;;0.10;0.10;;;9.40;99.90;;;;;;5035758;28;20835;-79
2022/10/11 05:11:16;;;;;;;0.10;0.10;;;9.30;99.90;;;;;;5033250;28;20194;-79
2022/10/11 05:13:42;;;;;;;0.00;0.00;;;9.20;99.90;;;;;;5031159;28;20266;-81
2022/10/11 05:16:08;;;;;;;0.00;0.00;;;9.20;99.90;;;;;;5038158;28;20185;-79
2022/10/11 05:18:34;;;;;;;0.00;0.00;;;9.20;99.90;;;;;;5038916;28;20619;-79
2022/10/11 05:21:04;;;;;;;0.10;0.10;;;9.20;99.90;;;;;;5039998;28;20193;-79
2022/10/11 05:23:31;;;;;;;0.00;0.00;;;9.10;99.90;;;;;;5040193;28;20185;-79
2022/10/11 05:25:58;;;;;;;0.10;0.10;;;9.00;99.90;;;;;;5040574;28;20202;-79
2022/10/11 05:28:23;;;;;;;0.10;0.10;;;8.90;99.90;;;;;;5038983;28;20202;-78
2022/10/11 05:30:49;;;;;;;0.10;0.10;;;8.90;99.90;;;;;;5036184;28;20181;-78
2022/10/11 05:33:14;;;;;;;0.10;0.10;;;8.90;99.90;;;;;;5032985;28;20737;-79
2022/10/11 05:35:40;;;;;;;0.00;0.00;;;8.80;99.90;;;;;;5034165;28;20231;-79
2022/10/11 05:38:06;;;;;;;0.00;0.00;;;8.80;99.90;;;;;;5035242;28;20191;-79
2022/10/11 05:40:32;;;;;;;0.10;0.10;;;8.70;99.90;;;;;;5032390;28;20185;-78
2022/10/11 05:42:58;;;;;;;0.03;0.03;;;8.70;99.90;;;;;;5034140;28;20193;-79
2022/10/11 05:45:23;;;;;;;0.07;0.07;;;8.70;99.90;;;;;;5031386;28;20571;-79
2022/10/11 05:47:49;;;;;;;0.10;0.10;;;8.70;99.90;;;;;;5035589;28;20188;-79
2022/10/11 05:50:15;;;;;;;0.10;0.10;;;8.70;99.90;;;;;;5034370;28;20284;-79
2022/10/11 05:52:40;;;;;;;0.00;0.00;;;8.70;99.90;;;;;;5034770;28;20200;-79
2022/10/11 05:55:06;;;;;;;0.00;0.00;;;8.70;99.90;;;;;;5031322;28;20207;-79
2022/10/11 05:57:32;;;;;;;0.10;0.10;;;8.70;99.90;;;;;;5035580;28;20188;-78
2022/10/11 05:59:57;;;;;;;0.10;0.10;;;8.70;99.90;;;;;;5033720;28;20211;-79
2022/10/11 06:02:23;;;;;;;0.00;0.00;;;8.70;99.90;;;;;;5036985;28;20192;-79
2022/10/11 06:04:48;;;;;;;0.00;0.00;;;8.70;99.90;;;;;;5035140;28;20745;-79
2022/10/11 06:07:14;;;;;;;0.00;0.00;;;8.70;99.90;;;;;;5034853;28;20194;-79
2022/10/11 06:09:39;;;;;;;0.00;0.00;;;8.60;99.90;;;;;;5036640;28;20227;-79
2022/10/11 06:12:05;;;;;;;0.00;0.00;;;8.70;99.90;;;;;;5038683;28;20291;-79
2022/10/11 06:14:31;;;;;;;0.43;0.43;;;8.80;99.90;;;;;;5036179;28;20343;-79
2022/10/11 06:16:56;;;;;;;0.10;0.10;;;8.80;99.90;;;;;;5034398;28;20268;-79
2022/10/11 06:19:22;;;;;;;0.00;0.00;;;8.80;99.90;;;;;;5036807;28;20328;-79
2022/10/11 06:21:48;;;;;;;0.10;0.10;;;8.80;99.90;;;;;;5034850;28;20184;-79
2022/10/11 06:24:13;;;;;;;0.10;0.10;;;8.90;99.90;;;;;;5032986;28;20186;-79
2022/10/11 06:26:39;;;;;;;0.10;0.10;;;9.10;99.90;;;;;;5035552;28;20229;-79
2022/10/11 06:29:05;;;;;;;0.10;0.10;;;9.20;99.90;;;;;;5033912;28;20210;-79
2022/10/11 06:31:31;;;;;;;0.00;0.00;;;9.30;99.90;;;;;;5035319;28;20273;-80
2022/10/11 06:33:58;;;;;;;0.10;0.10;;;9.30;99.90;;;;;;5034103;28;20309;-80
2022/10/11 06:36:24;;;;;;;0.10;0.10;;;9.40;99.90;;;;;;5034589;28;20177;-79
2022/10/11 06:38:53;;;;;;;0.10;0.10;;;9.60;99.90;;;;;;5035245;28;20202;-78
2022/10/11 06:41:25;;;;;;;0.10;0.10;;;9.60;99.90;;;;;;5031267;28;20236;-80
2022/10/11 06:43:51;;;;;;;0.10;0.10;;;9.80;99.90;;;;;;5032666;28;20198;-79
2022/10/11 06:46:18;;;;;;;0.10;0.10;;;9.80;99.90;;;;;;5035855;28;21146;-80
2022/10/11 06:48:46;;;;;;;0.10;0.10;;;9.90;99.90;;;;;;5036487;28;20198;-79
2022/10/11 06:51:13;;;;;;;0.00;0.00;;;9.90;99.90;;;;;;5031862;28;20200;-80
2022/10/11 06:53:39;;;;;;;0.10;0.10;;;10.00;99.90;;;;;;5035608;28;20201;-79
2022/10/11 06:56:07;;;;;;;0.00;0.00;;;10.10;99.90;;;;;;5037308;28;20188;-80
2022/10/11 06:58:33;;;;;;;0.10;0.10;;;10.10;99.90;;;;;;5029595;28;20301;-79
2022/10/11 07:01:00;;;;;;;0.10;0.10;;;10.20;99.90;;;;;;5030533;28;20189;-79
2022/10/11 07:03:26;;;;;;;0.00;0.00;;;10.40;99.90;;;;;;5033545;28;20203;-79
2022/10/11 07:05:52;;;;;;;0.10;0.10;;;10.40;99.90;;;;;;5035767;28;20185;-79
2022/10/11 07:08:17;;;;;;;0.10;0.10;;;10.40;99.90;;;;;;5031407;28;20869;-79
2022/10/11 07:10:43;;;;;;;0.10;0.10;;;10.50;99.90;;;;;;5036193;28;20182;-78
2022/10/11 07:13:08;;;;;;;0.10;0.10;;;10.80;99.90;;;;;;5035206;28;20204;-78
2022/10/11 07:15:39;;;;;;;0.10;0.10;;;11.00;99.90;;;;;;5035951;28;20173;-78
2022/10/11 07:18:06;;;;;;;0.10;0.10;;;11.00;99.90;;;;;;5034374;28;20523;-78
2022/10/11 07:20:31;;;;;;;0.10;0.10;;;11.20;99.90;;;;;;5031260;28;20184;-78
2022/10/11 07:22:57;;;;;;;0.00;0.00;;;11.20;99.90;;;;;;5033616;28;20186;-78
2022/10/11 07:25:22;;;;;;;0.10;0.10;;;11.40;99.90;;;;;;5051280;28;20235;-78
2022/10/11 07:27:48;;;;;;;0.10;0.10;;;11.60;99.90;;;;;;5034724;28;20248;-78
2022/10/11 07:30:13;;;;;;;0.10;0.10;;;11.60;99.90;;;;;;5031676;28;20192;-79
2022/10/11 07:32:39;;;;;;;0.10;0.10;;;11.50;99.90;;;;;;5033411;28;20192;-78
2022/10/11 07:35:05;;;;;;;0.10;0.10;;;11.60;99.90;;;;;;5032182;28;20263;-78
2022/10/11 07:37:31;;;;;;;0.00;0.00;;;11.80;99.90;;;;;;5034130;28;20236;-78
2022/10/11 07:39:57;;;;;;;0.10;0.10;;;11.80;99.90;;;;;;5032398;28;20557;-78
2022/10/11 07:42:22;;;;;;;0.10;0.10;;;11.80;99.90;;;;;;5034541;28;20188;-78
2022/10/11 07:44:48;;;;;;;0.00;0.00;;;12.00;99.90;;;;;;5033992;28;20655;-78
2022/10/11 07:47:14;;;;;;;0.10;0.10;;;12.10;99.90;;;;;;5032675;28;20229;-79
2022/10/11 07:49:39;;;;;;;0.10;0.10;;;12.00;99.90;;;;;;5033654;28;20218;-78
2022/10/11 07:52:05;;;;;;;0.10;0.10;;;12.10;99.90;;;;;;5033745;28;20219;-78
2022/10/11 07:54:31;;;;;;;0.10;0.10;;;12.00;99.90;;;;;;5029663;28;20571;-78
2022/10/11 07:57:12;;;;;;;0.10;0.10;;;12.10;99.90;;;;;;5034304;28;20318;-78
2022/10/11 07:59:37;;;;;;;0.10;0.10;;;12.40;99.90;;;;;;5031873;28;20198;-78
2022/10/11 08:02:03;;;;;;;0.03;0.03;;;12.50;99.90;;;;;;5034841;28;20213;-79
2022/10/11 08:04:28;;;;;;;0.10;0.10;;;12.80;99.90;;;;;;5032847;28;20199;-77
2022/10/11 08:06:54;;;;;;;0.10;0.10;;;12.70;99.90;;;;;;5029852;28;20676;-78
2022/10/11 08:09:19;;;;;;;0.10;0.10;;;12.50;99.90;;;;;;5030954;28;20754;-78
2022/10/11 08:11:45;;;;;;;0.10;0.10;;;12.60;99.90;;;;;;5032458;28;20185;-78
2022/10/11 08:14:10;;;;;;;0.10;0.10;;;12.70;99.90;;;;;;5031928;28;20214;-79
2022/10/11 08:16:39;;;;;;;0.10;0.10;;;12.70;99.90;;;;;;5029983;28;20224;-79
2022/10/11 08:19:06;;;;;;;0.00;0.00;;;12.90;99.90;;;;;;5030712;28;20673;-79
2022/10/11 08:21:32;;;;;;;0.10;0.10;;;12.80;99.90;;;;;;5030663;28;20185;-79
2022/10/11 08:23:57;;;;;;;0.10;0.10;;;13.00;99.90;;;;;;5030902;28;20185;-79
2022/10/11 08:26:23;;;;;;;0.10;0.10;;;13.20;99.90;;;;;;5032009;28;20184;-79
2022/10/11 08:28:49;;;;;;;0.10;0.10;;;13.40;99.90;;;;;;5030467;28;20214;-80
2022/10/11 08:31:15;;;;;;;0.10;0.10;;;13.50;99.90;;;;;;5031372;28;20191;-80
2022/10/11 08:33:42;;;;;;;0.10;0.10;;;13.40;99.90;;;;;;5032229;28;20211;-79
2022/10/11 08:36:08;;;;;;;0.10;0.10;;;13.30;99.90;;;;;;5034285;28;20177;-80
2022/10/11 08:38:35;;;;;;;0.10;0.10;;;13.30;99.90;;;;;;5034309;28;20203;-79
2022/10/11 08:41:01;;;;;;;0.10;0.10;;;13.40;99.90;;;;;;5033320;28;20205;-79
2022/10/11 08:43:29;;;;;;;0.10;0.10;;;13.70;99.90;;;;;;5033661;28;20190;-79
2022/10/11 08:45:58;;;;;;;0.10;0.10;;;14.10;99.90;;;;;;5035015;28;20694;-79
2022/10/11 08:48:48;;;;;;;0.10;0.10;;;14.30;99.90;;;;;;5036135;28;20214;-79
2022/10/11 08:51:42;;;;;;;0.10;0.10;;;14.30;99.90;;;;;;5031891;28;20202;-80
2022/10/11 08:54:30;;;;;;;0.00;0.00;;;14.00;99.90;;;;;;5033930;28;20205;-79
2022/10/11 08:56:55;;;;;;;0.10;0.10;;;13.70;99.90;;;;;;5034216;28;20213;-79
2022/10/11 08:59:34;;;;;;;0.10;0.10;;;13.80;99.90;;;;;;5036200;28;20292;-80
2022/10/11 09:02:20;;;;;;;0.10;0.10;;;14.20;99.90;;;;;;5035845;28;20182;-79
2022/10/11 09:04:50;;;;;;;0.10;0.10;;;14.20;99.90;;;;;;5037440;28;20274;-79
2022/10/11 09:07:46;;;;;;;0.10;0.10;;;14.20;99.90;;;;;;5036156;28;20197;-80
2022/10/11 09:10:31;;;;;;;0.10;0.10;;;14.00;99.90;;;;;;5034534;28;20262;-79
2022/10/11 09:12:56;;;;;;;0.10;0.10;;;14.20;99.90;;;;;;5034279;28;20193;-79
2022/10/11 09:16:13;;;;;;;0.10;0.10;;;13.80;99.90;;;;;;5031289;28;20184;-79
2022/10/11 09:19:02;;;;;;;0.10;0.10;;;13.80;99.90;;;;;;4978606;28;20228;-79
2022/10/11 09:21:44;;;;;;;0.10;0.10;;;14.00;99.90;;;;;;5031061;28;20190;-80
2022/10/11 09:24:44;;;;;;;0.10;0.10;;;14.30;99.90;;;;;;5036315;28;20528;-79
2022/10/11 09:27:34;;;;;;;0.10;0.10;;;14.60;99.90;;;;;;5033351;28;20197;-80
2022/10/11 09:30:05;;;;;;;0.10;0.10;;;14.30;99.90;;;;;;5037685;28;20201;-80
2022/10/11 09:32:35;;;;;;;0.10;0.10;;;14.30;99.90;;;;;;5035828;28;20240;-84
2022/10/11 09:35:13;;;;;;;0.10;0.10;;;14.80;99.90;;;;;;5040143;28;20219;-81
2022/10/11 09:37:56;;;;;;;0.10;0.10;;;14.50;99.90;;;;;;5038828;28;20172;-80
2022/10/11 09:40:54;;;;;;;0.10;0.10;;;14.90;99.90;;;;;;5033762;28;20182;-80
2022/10/11 09:43:19;;;;;;;0.10;0.10;;;15.30;99.90;;;;;;5006587;28;20228;-79
2022/10/11 09:45:45;;;;;;;0.10;0.10;;;15.50;99.90;;;;;;5034566;28;20222;-80
2022/10/11 09:48:19;;;;;;;0.10;0.10;;;15.30;99.90;;;;;;5035060;28;20220;-80
2022/10/11 09:50:46;;;;;;;0.03;0.03;;;15.30;99.90;;;;;;5034978;28;20210;-80
2022/10/11 09:53:12;;;;;;;0.10;0.10;;;15.10;99.90;;;;;;5035742;28;20208;-80
2022/10/11 09:55:52;;;;;;;0.10;0.10;;;14.80;99.90;;;;;;5035041;28;20177;-80
2022/10/11 09:58:33;;;;;;;0.00;0.00;;;14.70;99.90;;;;;;5030059;28;20209;-80
2022/10/11 10:01:05;;;;;;;0.10;0.10;;;14.70;99.90;;;;;;5035292;28;20537;-80
2022/10/11 10:03:42;;;;;;;0.10;0.10;;;14.50;99.90;;;;;;5033536;28;20220;-80
2022/10/11 10:06:26;;;;;;;0.10;0.10;;;14.70;99.90;;;;;;5031697;28;20194;-80
2022/10/11 10:08:52;;;;;;;0.10;0.10;;;14.90;99.90;;;;;;5035406;28;20289;-80
2022/10/11 10:11:18;;;;;;;0.10;0.10;;;14.70;99.90;;;;;;5034255;28;20572;-80
2022/10/11 10:13:49;;;;;;;0.07;0.07;;;14.90;99.90;;;;;;5034543;28;20239;-79
2022/10/11 10:16:26;;;;;;;0.10;0.10;;;15.10;99.90;;;;;;5033868;28;20191;-80
2022/10/11 10:19:00;;;;;;;0.10;0.10;;;15.00;99.90;;;;;;5034209;28;20195;-81
2022/10/11 10:21:47;;;;;;;0.10;0.10;;;15.40;99.90;;;;;;5030019;28;20193;-80
2022/10/11 10:24:37;;;;;;;0.10;0.10;;;15.40;99.90;;;;;;5032269;28;20193;-80
2022/10/11 10:27:28;;;;;;;0.10;0.10;;;15.30;99.90;;;;;;5030267;28;20225;-80
2022/10/11 10:30:09;;;;;;;0.10;0.10;;;15.60;99.90;;;;;;5032523;28;20306;-79
2022/10/11 10:32:39;;;;;;;0.10;0.10;;;15.40;99.90;;;;;;5032602;28;20228;-79
2022/10/11 10:35:12;;;;;;;0.10;0.10;;;15.30;99.90;;;;;;5036526;28;20249;-80
2022/10/11 10:37:49;;;;;;;0.10;0.10;;;15.30;99.90;;;;;;5034710;28;20173;-80
2022/10/11 10:40:23;;;;;;;0.10;0.10;;;15.40;99.90;;;;;;5032539;28;20308;-79
2022/10/11 10:42:49;;;;;;;0.10;0.10;;;15.60;99.90;;;;;;5030702;28;20189;-79
2022/10/11 10:45:17;;;;;;;0.10;0.10;;;15.60;99.90;;;;;;5035361;28;20312;-80
2022/10/11 10:48:03;;;;;;;0.10;0.10;;;15.80;99.90;;;;;;5030792;28;20185;-80
2022/10/11 10:50:53;;;;;;;0.00;0.00;;;15.60;99.90;;;;;;5033346;28;20209;-80
2022/10/11 10:53:39;;;;;;;0.10;0.10;;;16.00;99.90;;;;;;5033100;28;20283;-79
2022/10/11 10:56:20;;;;;;;0.10;0.10;;;16.10;99.90;;;;;;5034863;28;20191;-80
2022/10/11 10:59:06;;;;;;;0.10;0.10;;;16.10;99.90;;;;;;5031951;28;20215;-80
2022/10/11 11:01:49;;;;;;;0.10;0.10;;;16.50;99.90;;;;;;5028204;28;20186;-80
2022/10/11 11:04:31;;;;;;;0.10;0.10;;;16.60;99.90;;;;;;5033112;28;20185;-81
2022/10/11 11:07:00;;;;;;;0.10;0.10;;;16.80;99.90;;;;;;5034486;28;20194;-80
2022/10/11 11:09:33;;;;;;;0.10;0.10;;;16.30;99.90;;;;;;5030552;28;20206;-80
2022/10/11 11:12:15;;;;;;;0.10;0.10;;;16.70;99.90;;;;;;5031972;28;20220;-80
2022/10/11 11:14:53;;;;;;;0.10;0.10;;;17.00;99.90;;;;;;5035146;28;20545;-80
2022/10/11 11:17:38;;;;;;;0.10;0.10;;;17.40;99.90;;;;;;5031968;28;20190;-80
2022/10/11 11:20:52;;;;;;;0.10;0.10;;;17.00;99.90;;;;;;5033053;28;20206;-80
2022/10/11 11:23:32;;;;;;;0.10;0.10;;;16.80;99.90;;;;;;5010277;28;20191;-80
2022/10/11 11:26:03;;;;;;;0.10;0.10;;;17.00;99.90;;;;;;5032120;28;20218;-80
2022/10/11 11:28:32;;;;;;;0.10;0.10;;;17.20;99.90;;;;;;5034142;28;20292;-80
2022/10/11 11:31:32;;;;;;;0.10;0.10;;;17.50;99.90;;;;;;5031357;28;20181;-80
2022/10/11 11:34:22;;;;;;;0.10;0.10;;;17.70;99.90;;;;;;5030242;28;20210;-80
2022/10/11 11:36:57;;;;;;;0.10;0.10;;;17.00;99.90;;;;;;5028438;28;20177;-80
2022/10/11 11:39:28;;;;;;;0.10;0.10;;;16.60;99.90;;;;;;5029580;28;20201;-80
2022/10/11 11:42:14;;;;;;;0.10;0.10;;;17.10;99.90;;;;;;5031328;28;20197;-80
2022/10/11 11:44:47;;;;;;;0.10;0.10;;;17.00;99.90;;;;;;5030523;28;20194;-80
2022/10/11 11:47:25;;;;;;;0.10;0.10;;;17.40;99.90;;;;;;5028851;28;20197;-80
2022/10/11 11:50:01;;;;;;;0.10;0.10;;;17.70;99.90;;;;;;5026166;28;20735;-79
2022/10/11 11:52:29;;;;;;;0.10;0.10;;;17.70;99.90;;;;;;5027086;28;20223;-80
2022/10/11 11:55:07;;;;;;;0.10;0.10;;;17.70;99.90;;;;;;5026272;28;20214;-80
2022/10/11 11:57:46;;;;;;;0.10;0.10;;;17.40;99.90;;;;;;5031627;28;20182;-80
2022/10/11 12:00:22;;;;;;;0.10;0.10;;;17.50;99.90;;;;;;5026068;28;20213;-79
2022/10/11 12:03:00;;;;;;;0.10;0.10;;;17.50;99.90;;;;;;5027274;28;20189;-80
2022/10/11 12:05:31;;;;;;;0.10;0.10;;;17.80;99.90;;;;;;5024771;28;20198;-80
2022/10/11 12:08:00;;;;;;;0.10;0.10;;;17.60;99.90;;;;;;5028497;28;22218;-80
2022/10/11 12:10:46;;;;;;;0.10;0.10;;;17.60;99.90;;;;;;5030104;28;20531;-80
2022/10/11 12:13:24;;;;;;;0.10;0.10;;;17.50;99.90;;;;;;5048729;28;20671;-80
2022/10/11 12:16:04;;;;;;;0.10;0.10;;;17.60;99.90;;;;;;5033242;28;20491;-80
2022/10/11 12:18:32;;;;;;;0.10;0.10;;;17.40;99.90;;;;;;5032591;28;20259;-80
2022/10/11 12:21:22;;;;;;;0.10;0.10;;;17.50;99.90;;;;;;5048358;28;20663;-80
2022/10/11 12:23:51;;;;;;;0.10;0.10;;;17.70;99.90;;;;;;5033857;28;20184;-80
2022/10/11 12:26:36;;;;;;;0.10;0.10;;;17.90;99.90;;;;;;5031755;28;20193;-80
2022/10/11 12:29:16;;;;;;;0.37;0.37;;;16.80;99.90;;;;;;5035561;28;20240;-80
2022/10/11 12:31:42;;;;;;;0.10;0.10;;;17.10;99.90;;;;;;5032612;28;20277;-80
2022/10/11 12:34:08;;;;;;;0.10;0.10;;;16.50;99.90;;;;;;5030620;28;20213;-80
2022/10/11 12:36:36;;;;;;;0.10;0.10;;;16.90;99.90;;;;;;5026295;28;20182;-80
2022/10/11 12:39:17;;;;;;;0.10;0.10;;;17.10;99.90;;;;;;5025254;28;21286;-79
2022/10/11 12:41:46;;;;;;;0.10;0.10;;;17.20;99.90;;;;;;5033502;28;20235;-80
2022/10/11 12:44:17;;;;;;;0.10;0.10;;;16.80;99.90;;;;;;5029296;28;20599;-80
2022/10/11 12:46:49;;;;;;;0.10;0.10;;;16.80;99.90;;;;;;5029947;28;20260;-79
2022/10/11 12:49:24;;;;;;;0.10;0.10;;;16.90;99.90;;;;;;5029794;28;20214;-80
2022/10/11 12:52:11;;;;;;;0.10;0.10;;;16.90;99.90;;;;;;5030929;28;20202;-80
2022/10/11 12:55:16;;;;;;;0.10;0.10;;;16.80;99.90;;;;;;5032092;28;20214;-79
2022/10/11 12:58:05;;;;;;;0.10;0.10;;;16.90;99.90;;;;;;5031960;28;20178;-80
2022/10/11 13:00:39;;;;;;;0.10;0.10;;;17.30;99.90;;;;;;5028646;28;20191;-80
2022/10/11 13:03:32;;;;;;;0.10;0.10;;;17.10;99.90;;;;;;5031619;28;20182;-80
2022/10/11 13:05:58;;;;;;;0.10;0.10;;;17.10;99.90;;;;;;5032068;28;20224;-80
2022/10/11 13:08:34;;;;;;;0.10;0.10;;;17.40;99.90;;;;;;5032564;28;20214;-80
2022/10/11 13:11:16;;;;;;;0.10;0.10;;;17.60;99.90;;;;;;5033450;28;20181;-80